createdAt,value
2016-03-22T00:00:11.767Z,94.74
2016-03-22T00:00:25.861Z,94.64
2016-03-22T00:00:40.111Z,94.08
2016-03-22T00:00:54.189Z,94.55
2016-03-22T00:01:08.098Z,94.45
2016-03-22T00:01:22.317Z,94.36
2016-03-22T00:01:36.379Z,94.74
2016-03-22T00:01:50.739Z,94.83
2016-03-22T00:02:04.913Z,94.93
2016-03-22T00:02:19.131Z,95.3
2016-03-22T00:02:33.491Z,94.74
2016-03-22T00:02:47.678Z,94.27
2016-03-22T00:03:00.928Z,94.83
2016-03-22T00:03:15.651Z,95.59
2016-03-22T00:03:32.885Z,95.68
2016-03-22T00:03:46.948Z,95.4
2016-03-22T00:04:01.307Z,94.64
2016-03-22T00:04:15.262Z,94.83
2016-03-22T00:04:29.637Z,94.36
2016-03-22T00:04:43.887Z,93.98
2016-03-22T00:04:57.950Z,93.98
2016-03-22T00:05:25.999Z,93.23
2016-03-22T00:05:40.233Z,93.04
2016-03-22T00:05:54.358Z,93.32
2016-03-22T00:06:08.440Z,92.76
2016-03-22T00:06:22.753Z,92.76
2016-03-22T00:06:36.768Z,92.38
2016-03-22T00:06:51.300Z,92.38
2016-03-22T00:07:05.223Z,91.53
2016-03-22T00:07:19.645Z,91.63
2016-03-22T00:07:33.708Z,92
2016-03-22T00:07:48.145Z,93.23
2016-03-22T00:08:02.380Z,93.23
2016-03-22T00:08:16.616Z,93.61
2016-03-22T00:08:30.725Z,93.23
2016-03-22T00:08:45.257Z,92.85
2016-03-22T00:08:59.491Z,93.23
2016-03-22T00:09:13.791Z,93.13
2016-03-22T00:09:28.041Z,92.95
2016-03-22T00:09:42.150Z,92.19
2016-03-22T00:09:56.463Z,92
2016-03-22T00:10:10.919Z,92.29
2016-03-22T00:10:25.231Z,92.66
2016-03-22T00:10:39.231Z,93.13
2016-03-22T00:10:53.325Z,93.7
2016-03-22T00:11:07.172Z,94.08
2016-03-22T00:11:21.016Z,94.93
2016-03-22T00:11:35.313Z,95.3
2016-03-22T00:11:49.781Z,95.68
2016-03-22T00:12:03.969Z,95.96
2016-03-22T00:12:18.253Z,96.44
2016-03-22T00:12:33.191Z,97
2016-03-22T00:12:47.394Z,96.91
2016-03-22T00:13:01.722Z,96.91
2016-03-22T00:13:15.880Z,97.75
2016-03-22T00:13:28.927Z,98.5
2016-03-22T00:13:42.974Z,98.41
2016-03-22T00:13:57.114Z,98.88
2016-03-22T00:14:11.179Z,99.26
2016-03-22T00:14:25.616Z,99.26
2016-03-22T00:14:39.741Z,99.99
2016-03-22T00:14:52.991Z,99.99
2016-03-22T00:15:07.183Z,99.99
2016-03-22T00:15:21.355Z,99.99
2016-03-22T00:15:35.261Z,99.99
2016-03-22T00:15:49.308Z,99.99
2016-03-22T00:16:03.464Z,99.82
2016-03-22T00:16:17.779Z,99.54
2016-03-22T00:16:32.247Z,99.26
2016-03-22T00:16:46.294Z,99.73
2016-03-22T00:17:00.341Z,99.54
2016-03-22T00:17:14.593Z,99.91
2016-03-22T00:17:29.265Z,99.91
2016-03-22T00:17:43.593Z,99.99
2016-03-22T00:17:58.078Z,99.99
2016-03-22T00:18:12.175Z,99.99
2016-03-22T00:18:26.378Z,99.99
2016-03-22T00:18:40.550Z,99.99
2016-03-22T00:18:54.597Z,99.99
2016-03-22T00:19:08.787Z,99.99
2016-03-22T00:19:22.849Z,99.99
2016-03-22T00:19:36.990Z,99.99
2016-03-22T00:19:50.943Z,99.99
2016-03-22T00:20:04.271Z,99.99
2016-03-22T00:20:18.352Z,99.99
2016-03-22T00:20:32.821Z,99.99
2016-03-22T00:20:46.977Z,99.99
2016-03-22T00:21:01.368Z,99.99
2016-03-22T00:21:15.933Z,99.99
2016-03-22T00:21:30.074Z,99.99
2016-03-22T00:21:44.340Z,99.99
2016-03-22T00:21:58.199Z,99.99
2016-03-22T00:22:12.357Z,99.99
2016-03-22T00:22:26.435Z,99.99
2016-03-22T00:22:40.388Z,99.99
2016-03-22T00:22:54.420Z,99.99
2016-03-22T00:23:08.501Z,99.99
2016-03-22T00:23:22.595Z,99.99
2016-03-22T00:23:36.923Z,99.99
2016-03-22T00:23:51.282Z,99.99
2016-03-22T00:24:05.629Z,99.99
2016-03-22T00:24:19.848Z,99.99
2016-03-22T00:24:33.301Z,99.99
2016-03-22T00:24:47.394Z,99.99
2016-03-22T00:25:01.957Z,99.99
2016-03-22T00:25:16.381Z,99.99
2016-03-22T00:25:30.521Z,99.99
2016-03-22T00:25:44.850Z,99.99
2016-03-22T00:25:58.537Z,99.99
2016-03-22T00:26:12.634Z,99.99
2016-03-22T00:26:26.540Z,99.99
2016-03-22T00:27:09.699Z,99.99
2016-03-22T00:27:23.777Z,99.99
2016-03-22T00:27:38.043Z,99.99
2016-03-22T00:27:52.027Z,99.99
2016-03-22T00:28:06.014Z,99.99
2016-03-22T00:28:19.983Z,99.99
2016-03-22T00:28:34.108Z,99.99
2016-03-22T00:28:48.389Z,99.99
2016-03-22T00:29:02.529Z,99.35
2016-03-22T00:29:16.532Z,99.73
2016-03-22T00:29:30.751Z,99.82
2016-03-22T00:29:44.923Z,99.16
2016-03-22T00:29:59.079Z,99.63
2016-03-22T00:30:13.394Z,99.99
2016-03-22T00:30:27.894Z,99.99
2016-03-22T00:30:42.019Z,99.99
2016-03-22T00:30:56.409Z,99.99
2016-03-22T00:31:10.616Z,99.99
2016-03-22T00:31:24.944Z,99.99
2016-03-22T00:31:39.178Z,99.99
2016-03-22T00:31:53.287Z,99.99
2016-03-22T00:32:07.446Z,99.99
2016-03-22T00:32:35.711Z,99.99
2016-03-22T00:32:49.743Z,99.99
2016-03-22T00:33:04.008Z,99.99
2016-03-22T00:33:18.496Z,99.99
2016-03-22T00:33:33.105Z,99.99
2016-03-22T00:33:47.292Z,99.99
2016-03-22T00:34:01.589Z,99.99
2016-03-22T00:34:15.733Z,99.99
2016-03-22T00:34:29.999Z,99.99
2016-03-22T00:34:44.077Z,99.99
2016-03-22T00:34:58.014Z,99.99
2016-03-22T00:35:12.438Z,99.99
2016-03-22T00:35:25.844Z,99.99
2016-03-22T00:35:40.594Z,99.99
2016-03-22T00:35:54.891Z,99.99
2016-03-22T00:36:09.394Z,99.99
2016-03-22T00:36:23.660Z,99.99
2016-03-22T00:36:37.754Z,99.99
2016-03-22T00:36:51.879Z,99.99
2016-03-22T00:37:05.974Z,99.99
2016-03-22T00:37:20.224Z,99.99
2016-03-22T00:37:34.506Z,99.99
2016-03-22T00:37:48.724Z,99.99
2016-03-22T00:38:03.037Z,99.99
2016-03-22T00:38:17.088Z,99.99
2016-03-22T00:38:45.056Z,99.99
2016-03-22T00:38:59.603Z,99.99
2016-03-22T00:39:13.793Z,99.99
2016-03-22T00:39:28.340Z,99.99
2016-03-22T00:39:42.277Z,99.99
2016-03-22T00:39:56.558Z,99.99
2016-03-22T00:40:13.468Z,99.99
2016-03-22T00:40:27.624Z,99.99
2016-03-22T00:40:42.140Z,99.99
2016-03-22T00:40:56.311Z,99.99
2016-03-22T00:41:10.548Z,99.99
2016-03-22T00:41:24.642Z,99.99
2016-03-22T00:41:38.985Z,99.99
2016-03-22T00:41:53.220Z,99.99
2016-03-22T00:42:07.348Z,99.99
2016-03-22T00:42:21.645Z,99.99
2016-03-22T00:42:35.832Z,99.99
2016-03-22T00:42:50.145Z,99.99
2016-03-22T00:43:04.176Z,99.99
2016-03-22T00:43:18.554Z,99.99
2016-03-22T00:43:32.038Z,99.99
2016-03-22T00:43:46.304Z,99.99
2016-03-22T00:44:00.288Z,99.99
2016-03-22T00:44:14.525Z,99.99
2016-03-22T00:44:29.087Z,99.99
2016-03-22T00:44:43.275Z,99.99
2016-03-22T00:45:11.403Z,99.99
2016-03-22T00:45:25.699Z,99.99
2016-03-22T00:45:39.996Z,99.99
2016-03-22T00:45:53.981Z,99.99
2016-03-22T00:46:08.187Z,99.99
2016-03-22T00:46:22.390Z,99.99
2016-03-22T00:46:36.718Z,99.99
2016-03-22T00:46:50.796Z,99.99
2016-03-22T00:47:04.890Z,99.99
2016-03-22T00:47:21.955Z,99.99
2016-03-22T00:47:36.096Z,99.99
2016-03-22T00:47:50.799Z,99.99
2016-03-22T00:48:05.190Z,99.99
2016-03-22T00:48:19.676Z,99.99
2016-03-22T00:48:33.754Z,99.99
2016-03-22T00:48:47.723Z,99.99
2016-03-22T00:49:01.942Z,99.99
2016-03-22T00:49:16.117Z,99.99
2016-03-22T00:49:30.242Z,99.99
2016-03-22T00:49:44.023Z,99.99
2016-03-22T00:49:58.195Z,99.99
2016-03-22T00:50:12.338Z,99.99
2016-03-22T00:50:26.948Z,99.99
2016-03-22T00:50:41.229Z,99.99
2016-03-22T00:50:55.432Z,99.99
2016-03-22T00:51:09.653Z,99.99
2016-03-22T00:51:23.700Z,99.99
2016-03-22T00:51:37.169Z,99.99
2016-03-22T00:51:51.465Z,99.99
2016-03-22T00:52:05.922Z,99.99
2016-03-22T00:52:20.093Z,99.99
2016-03-22T00:52:34.547Z,99.99
2016-03-22T00:52:49.031Z,99.99
2016-03-22T00:53:02.968Z,99.99
2016-03-22T00:53:17.236Z,99.99
2016-03-22T00:53:30.689Z,99.99
2016-03-22T00:53:44.845Z,99.99
2016-03-22T00:53:59.017Z,99.99
2016-03-22T00:54:13.318Z,99.99
2016-03-22T00:54:27.662Z,99.99
2016-03-22T00:54:41.959Z,99.99
2016-03-22T00:54:56.271Z,99.99
2016-03-22T00:55:10.523Z,99.99
2016-03-22T00:55:25.055Z,99.99
2016-03-22T00:55:39.508Z,99.99
2016-03-22T00:55:53.476Z,99.99
2016-03-22T00:56:07.683Z,99.99
2016-03-22T00:56:21.089Z,99.99
2016-03-22T00:56:35.198Z,99.99
2016-03-22T00:56:49.776Z,99.99
2016-03-22T00:57:03.792Z,99.99
2016-03-22T00:57:17.794Z,99.99
2016-03-22T00:57:32.028Z,99.99
2016-03-22T00:57:46.138Z,99.99
2016-03-22T00:58:00.278Z,99.99
2016-03-22T00:58:14.547Z,99.99
2016-03-22T00:58:28.938Z,99.99
2016-03-22T00:58:43.016Z,99.99
2016-03-22T00:58:57.328Z,99.99
2016-03-22T00:59:11.424Z,99.99
2016-03-22T00:59:26.018Z,99.99
2016-03-22T00:59:40.221Z,99.99
2016-03-22T00:59:54.596Z,99.99
2016-03-22T01:00:08.819Z,99.99
2016-03-22T01:00:23.381Z,99.99
2016-03-22T01:00:37.694Z,99.99
2016-03-22T01:00:51.162Z,99.99
2016-03-22T01:01:05.444Z,99.99
2016-03-22T01:01:19.617Z,99.99
2016-03-22T01:01:34.508Z,99.99
2016-03-22T01:01:48.649Z,99.99
2016-03-22T01:02:03.024Z,99.99
2016-03-22T01:02:17.057Z,99.99
2016-03-22T01:02:31.229Z,99.99
2016-03-22T01:02:45.354Z,99.99
2016-03-22T01:02:59.463Z,99.99
2016-03-22T01:03:15.920Z,99.99
2016-03-22T01:03:29.920Z,99.99
2016-03-22T01:03:44.483Z,99.99
2016-03-22T01:03:58.623Z,99.99
2016-03-22T01:04:26.610Z,99.99
2016-03-22T01:04:40.625Z,99.99
2016-03-22T01:04:55.079Z,99.99
2016-03-22T01:05:09.191Z,99.99
2016-03-22T01:05:23.316Z,99.99
2016-03-22T01:05:37.925Z,99.99
2016-03-22T01:05:52.097Z,99.99
2016-03-22T01:06:06.350Z,99.99
2016-03-22T01:06:20.522Z,99.99
2016-03-22T01:06:48.600Z,99.99
2016-03-22T01:07:02.803Z,99.99
2016-03-22T01:07:17.055Z,99.99
2016-03-22T01:07:31.149Z,99.99
2016-03-22T01:07:45.337Z,99.99
2016-03-22T01:07:59.805Z,99.99
2016-03-22T01:08:14.074Z,99.99
2016-03-22T01:08:28.355Z,99.99
2016-03-22T01:08:42.465Z,99.99
2016-03-22T01:08:56.715Z,99.99
2016-03-22T01:09:10.764Z,99.99
2016-03-22T01:09:25.327Z,99.99
2016-03-22T01:09:39.249Z,99.99
2016-03-22T01:09:53.280Z,99.99
2016-03-22T01:10:07.173Z,99.99
2016-03-22T01:10:21.110Z,99.99
2016-03-22T01:10:34.954Z,99.99
2016-03-22T01:10:49.266Z,99.99
2016-03-22T01:11:03.751Z,99.99
2016-03-22T01:11:17.941Z,99.99
2016-03-22T01:11:32.269Z,99.99
2016-03-22T01:11:46.113Z,99.99
2016-03-22T01:12:00.285Z,99.99
2016-03-22T01:12:14.351Z,99.99
2016-03-22T01:12:28.507Z,99.99
2016-03-22T01:12:42.804Z,99.99
2016-03-22T01:12:57.226Z,99.99
2016-03-22T01:13:11.462Z,99.99
2016-03-22T01:13:25.415Z,99.99
2016-03-22T01:13:53.618Z,99.99
2016-03-22T01:14:07.825Z,99.99
2016-03-22T01:14:21.700Z,99.99
2016-03-22T01:14:35.763Z,99.99
2016-03-22T01:14:49.888Z,99.99
2016-03-22T01:15:04.028Z,99.99
2016-03-22T01:15:18.093Z,99.99
2016-03-22T01:15:32.187Z,99.99
2016-03-22T01:15:46.202Z,99.99
2016-03-22T01:16:00.187Z,99.99
2016-03-22T01:16:14.627Z,99.99
2016-03-22T01:16:28.940Z,99.99
2016-03-22T01:16:43.283Z,99.99
2016-03-22T01:16:57.533Z,99.99
2016-03-22T01:17:11.723Z,99.99
2016-03-22T01:17:25.051Z,99.99
2016-03-22T01:17:39.176Z,99.99
2016-03-22T01:17:53.567Z,99.99
2016-03-22T01:18:07.695Z,99.99
2016-03-22T01:18:50.273Z,99.99
2016-03-22T01:19:04.679Z,99.99
2016-03-22T01:19:18.681Z,99.99
2016-03-22T01:19:32.728Z,99.99
2016-03-22T01:19:46.165Z,99.99
2016-03-22T01:20:00.056Z,99.99
2016-03-22T01:20:14.356Z,99.99
2016-03-22T01:20:28.200Z,99.99
2016-03-22T01:20:42.278Z,99.99
2016-03-22T01:20:56.840Z,99.99
2016-03-22T01:21:11.156Z,99.99
2016-03-22T01:21:25.203Z,99.99
2016-03-22T01:21:39.406Z,99.99
2016-03-22T01:21:53.703Z,99.99
2016-03-22T01:22:07.595Z,99.99
2016-03-22T01:22:21.767Z,99.99
2016-03-22T01:22:36.017Z,99.99
2016-03-22T01:22:50.345Z,99.99
2016-03-22T01:23:04.330Z,99.99
2016-03-22T01:23:18.240Z,99.99
2016-03-22T01:23:32.849Z,99.99
2016-03-22T01:23:46.990Z,99.99
2016-03-22T01:24:00.787Z,99.99
2016-03-22T01:24:14.101Z,99.99
2016-03-22T01:24:28.476Z,99.99
2016-03-22T01:24:41.851Z,99.99
2016-03-22T01:25:10.291Z,99.99
2016-03-22T01:25:24.697Z,99.99
2016-03-22T01:25:38.822Z,99.99
2016-03-22T01:25:53.166Z,99.99
2016-03-22T01:26:07.560Z,99.99
2016-03-22T01:26:21.701Z,99.99
2016-03-22T01:26:35.982Z,99.99
2016-03-22T01:26:50.232Z,99.99
2016-03-22T01:27:04.545Z,99.99
2016-03-22T01:27:18.625Z,99.99
2016-03-22T01:27:32.766Z,99.99
2016-03-22T01:27:46.937Z,99.99
2016-03-22T01:28:01.203Z,99.99
2016-03-22T01:28:15.190Z,99.99
2016-03-22T01:28:29.315Z,99.99
2016-03-22T01:28:43.925Z,99.99
2016-03-22T01:28:58.300Z,99.99
2016-03-22T01:29:12.427Z,99.99
2016-03-22T01:29:26.739Z,99.99
2016-03-22T01:29:41.036Z,99.99
2016-03-22T01:29:55.146Z,99.99
2016-03-22T01:30:09.383Z,99.99
2016-03-22T01:30:23.852Z,99.99
2016-03-22T01:30:52.133Z,99.99
2016-03-22T01:31:06.227Z,99.99
2016-03-22T01:31:19.995Z,99.99
2016-03-22T01:31:48.183Z,99.99
2016-03-22T01:32:01.714Z,99.99
2016-03-22T01:32:15.764Z,99.99
2016-03-22T01:32:29.795Z,99.99
2016-03-22T01:32:43.686Z,99.99
2016-03-22T01:32:57.873Z,99.99
2016-03-22T01:33:12.657Z,99.99
2016-03-22T01:33:29.813Z,99.99
2016-03-22T01:33:44.000Z,99.99
2016-03-22T01:33:58.625Z,99.99
2016-03-22T01:34:12.910Z,99.99
2016-03-22T01:34:26.503Z,99.99
2016-03-22T01:34:40.597Z,99.99
2016-03-22T01:34:54.769Z,99.99
2016-03-22T01:35:08.741Z,99.99
2016-03-22T01:35:22.772Z,99.99
2016-03-22T01:35:36.944Z,99.99
2016-03-22T01:36:19.133Z,99.99
2016-03-22T01:36:33.555Z,99.99
2016-03-22T01:36:47.461Z,99.99
2016-03-22T01:37:01.399Z,99.99
2016-03-22T01:37:15.777Z,99.99
2016-03-22T01:37:29.933Z,99.99
2016-03-22T01:37:43.230Z,99.99
2016-03-22T01:37:57.449Z,99.99
2016-03-22T01:38:11.545Z,99.99
2016-03-22T01:38:25.873Z,99.99
2016-03-22T01:39:08.595Z,99.99
2016-03-22T01:39:22.736Z,99.99
2016-03-22T01:39:37.080Z,99.99
2016-03-22T01:39:51.470Z,99.99
2016-03-22T01:40:05.564Z,99.99
2016-03-22T01:40:19.676Z,99.99
2016-03-22T01:40:32.957Z,99.99
2016-03-22T01:40:47.222Z,99.99
2016-03-22T01:41:01.238Z,99.99
2016-03-22T01:41:15.335Z,99.99
2016-03-22T01:41:29.694Z,99.99
2016-03-22T01:41:43.850Z,99.99
2016-03-22T01:41:57.882Z,99.99
2016-03-22T01:42:12.212Z,99.99
2016-03-22T01:42:26.149Z,99.99
2016-03-22T01:42:40.290Z,99.99
2016-03-22T01:42:54.337Z,99.99
2016-03-22T01:43:08.699Z,99.99
2016-03-22T01:43:22.980Z,99.99
2016-03-22T01:43:37.215Z,99.99
2016-03-22T01:43:51.465Z,99.99
2016-03-22T01:44:05.684Z,99.99
2016-03-22T01:44:20.140Z,99.99
2016-03-22T01:44:34.296Z,99.99
2016-03-22T01:44:48.827Z,99.99
2016-03-22T01:45:02.937Z,99.99
2016-03-22T01:45:17.157Z,99.99
2016-03-22T01:45:31.376Z,99.99
2016-03-22T01:45:45.610Z,99.99
2016-03-22T01:45:59.642Z,99.99
2016-03-22T01:46:13.520Z,99.99
2016-03-22T01:46:27.660Z,99.99
2016-03-22T01:46:42.051Z,99.99
2016-03-22T01:46:56.192Z,99.99
2016-03-22T01:47:10.912Z,99.99
2016-03-22T01:47:25.006Z,99.99
2016-03-22T01:47:39.115Z,99.99
2016-03-22T01:47:53.287Z,99.99
2016-03-22T01:48:21.541Z,99.99
2016-03-22T01:48:35.229Z,99.99
2016-03-22T01:48:48.573Z,99.99
2016-03-22T01:49:02.619Z,99.99
2016-03-22T01:49:16.871Z,99.99
2016-03-22T01:49:33.965Z,99.99
2016-03-22T01:49:47.965Z,99.99
2016-03-22T01:50:02.059Z,99.99
2016-03-22T01:50:16.062Z,99.99
2016-03-22T01:50:30.093Z,99.99
2016-03-22T01:50:44.531Z,99.99
2016-03-22T01:50:58.343Z,99.99
2016-03-22T01:51:12.424Z,99.99
2016-03-22T01:51:26.674Z,99.99
2016-03-22T01:51:40.721Z,99.99
2016-03-22T01:51:55.065Z,99.99
2016-03-22T01:52:09.317Z,99.99
2016-03-22T01:52:23.645Z,99.99
2016-03-22T01:52:38.083Z,99.99
2016-03-22T01:52:52.145Z,99.99
2016-03-22T01:53:09.179Z,99.99
2016-03-22T01:53:37.351Z,99.99
2016-03-22T01:53:51.539Z,99.99
2016-03-22T01:54:05.539Z,99.99
2016-03-22T01:54:20.229Z,99.99
2016-03-22T01:54:34.432Z,99.99
2016-03-22T01:54:48.573Z,99.99
2016-03-22T01:55:02.870Z,99.99
2016-03-22T01:55:17.216Z,99.99
2016-03-22T01:55:31.137Z,99.99
2016-03-22T01:55:59.262Z,99.99
2016-03-22T01:56:13.219Z,99.99
2016-03-22T01:56:27.500Z,99.99
2016-03-22T01:56:41.734Z,99.99
2016-03-22T01:56:55.656Z,99.99
2016-03-22T01:57:09.811Z,99.99
2016-03-22T01:57:24.171Z,99.99
2016-03-22T01:57:38.561Z,99.99
2016-03-22T01:57:52.983Z,99.99
2016-03-22T01:58:07.207Z,99.99
2016-03-22T01:58:21.644Z,99.99
2016-03-22T01:58:35.753Z,99.99
2016-03-22T01:58:50.160Z,99.99
2016-03-22T01:59:04.535Z,99.99
2016-03-22T01:59:17.978Z,99.99
2016-03-22T01:59:32.150Z,99.99
2016-03-22T01:59:46.025Z,99.99
2016-03-22T02:00:00.603Z,99.99
2016-03-22T02:00:14.732Z,99.99
2016-03-22T02:00:28.920Z,99.99
2016-03-22T02:00:43.201Z,99.99
2016-03-22T02:00:57.279Z,99.99
2016-03-22T02:01:11.440Z,99.99
2016-03-22T02:01:25.675Z,99.99
2016-03-22T02:01:40.206Z,99.99
2016-03-22T02:01:54.206Z,99.99
2016-03-22T02:02:08.448Z,99.99
2016-03-22T02:02:22.604Z,99.99
2016-03-22T02:02:36.776Z,99.99
2016-03-22T02:02:51.073Z,99.99
2016-03-22T02:03:04.167Z,99.99
2016-03-22T02:03:18.132Z,99.99
2016-03-22T02:03:32.382Z,99.99
2016-03-22T02:03:46.257Z,99.99
2016-03-22T02:04:00.867Z,99.99
2016-03-22T02:04:15.021Z,99.99
2016-03-22T02:04:29.443Z,99.99
2016-03-22T02:04:43.646Z,99.99
2016-03-22T02:04:57.677Z,99.99
2016-03-22T02:05:12.035Z,99.99
2016-03-22T02:05:25.519Z,99.99
2016-03-22T02:05:39.628Z,99.99
2016-03-22T02:05:53.847Z,99.99
2016-03-22T02:06:08.328Z,99.99
2016-03-22T02:06:22.375Z,99.99
2016-03-22T02:06:36.453Z,99.99
2016-03-22T02:06:50.641Z,99.99
2016-03-22T02:07:05.141Z,99.99
2016-03-22T02:07:19.281Z,99.99
2016-03-22T02:07:33.249Z,99.99
2016-03-22T02:07:47.406Z,99.99
2016-03-22T02:08:01.609Z,99.99
2016-03-22T02:08:15.595Z,99.99
2016-03-22T02:08:29.658Z,99.99
2016-03-22T02:08:43.954Z,99.99
2016-03-22T02:08:58.126Z,99.99
2016-03-22T02:09:12.329Z,99.99
2016-03-22T02:09:26.345Z,99.99
2016-03-22T02:09:40.626Z,99.99
2016-03-22T02:09:55.033Z,99.99
2016-03-22T02:10:09.065Z,99.99
2016-03-22T02:10:23.221Z,99.99
2016-03-22T02:10:37.346Z,99.99
2016-03-22T02:10:51.534Z,99.99
2016-03-22T02:11:06.580Z,99.99
2016-03-22T02:11:20.739Z,99.99
2016-03-22T02:11:34.770Z,99.99
2016-03-22T02:11:48.786Z,99.99
2016-03-22T02:12:03.129Z,99.99
2016-03-22T02:12:17.162Z,99.99
2016-03-22T02:12:31.427Z,99.99
2016-03-22T02:12:45.677Z,99.99
2016-03-22T02:13:00.380Z,99.99
2016-03-22T02:13:14.444Z,99.99
2016-03-22T02:13:29.131Z,99.99
2016-03-22T02:13:42.631Z,99.99
2016-03-22T02:13:57.038Z,99.99
2016-03-22T02:14:11.086Z,99.99
2016-03-22T02:14:25.196Z,99.99
2016-03-22T02:14:39.743Z,99.99
2016-03-22T02:14:53.930Z,99.99
2016-03-22T02:15:08.183Z,99.99
2016-03-22T02:15:22.230Z,99.99
2016-03-22T02:15:36.168Z,99.99
2016-03-22T02:15:50.058Z,99.99
2016-03-22T02:16:04.183Z,99.99
2016-03-22T02:16:17.747Z,99.99
2016-03-22T02:16:31.981Z,99.99
2016-03-22T02:16:46.106Z,99.99
2016-03-22T02:17:00.387Z,99.99
2016-03-22T02:17:14.390Z,99.99
2016-03-22T02:17:28.578Z,99.99
2016-03-22T02:17:42.765Z,99.99
2016-03-22T02:17:56.968Z,99.99
2016-03-22T02:18:11.221Z,99.99
2016-03-22T02:18:25.456Z,99.99
2016-03-22T02:18:39.612Z,99.99
2016-03-22T02:18:53.893Z,99.99
2016-03-22T02:19:08.067Z,99.99
2016-03-22T02:19:22.848Z,99.99
2016-03-22T02:19:37.067Z,99.99
2016-03-22T02:19:51.130Z,99.99
2016-03-22T02:20:05.239Z,99.99
2016-03-22T02:20:19.633Z,99.99
2016-03-22T02:20:33.867Z,99.99
2016-03-22T02:20:47.836Z,99.99
2016-03-22T02:21:02.398Z,99.99
2016-03-22T02:21:16.433Z,99.99
2016-03-22T02:21:30.667Z,99.99
2016-03-22T02:21:44.964Z,99.99
2016-03-22T02:21:59.229Z,99.99
2016-03-22T02:22:13.138Z,99.99
2016-03-22T02:22:27.560Z,99.99
2016-03-22T02:22:41.622Z,99.99
2016-03-22T02:22:55.872Z,99.99
2016-03-22T02:23:13.047Z,99.99
2016-03-22T02:23:27.250Z,99.99
2016-03-22T02:23:41.750Z,99.99
2016-03-22T02:24:10.144Z,99.99
2016-03-22T02:24:24.159Z,99.99
2016-03-22T02:24:38.269Z,99.99
2016-03-22T02:24:52.581Z,99.99
2016-03-22T02:25:06.706Z,99.99
2016-03-22T02:25:21.271Z,99.99
2016-03-22T02:25:35.489Z,99.99
2016-03-22T02:25:49.489Z,99.99
2016-03-22T02:26:03.427Z,99.99
2016-03-22T02:26:17.727Z,99.99
2016-03-22T02:26:31.914Z,99.99
2016-03-22T02:26:45.946Z,99.99
2016-03-22T02:27:00.430Z,99.99
2016-03-22T02:27:14.667Z,99.99
2016-03-22T02:27:28.949Z,99.99
2016-03-22T02:27:43.199Z,99.99
2016-03-22T02:27:57.339Z,99.99
2016-03-22T02:28:10.826Z,99.99
2016-03-22T02:28:25.185Z,99.99
2016-03-22T02:28:39.341Z,99.99
2016-03-22T02:28:56.529Z,99.99
2016-03-22T02:29:10.907Z,99.99
2016-03-22T02:29:25.297Z,99.99
2016-03-22T02:29:39.797Z,99.99
2016-03-22T02:29:54.047Z,99.99
2016-03-22T02:30:08.274Z,99.99
2016-03-22T02:30:22.383Z,99.99
2016-03-22T02:30:36.633Z,99.99
2016-03-22T02:30:50.680Z,99.99
2016-03-22T02:31:05.321Z,99.99
2016-03-22T02:31:19.635Z,99.99
2016-03-22T02:31:33.260Z,99.99
2016-03-22T02:31:47.588Z,99.99
2016-03-22T02:32:01.698Z,99.99
2016-03-22T02:32:15.670Z,99.99
2016-03-22T02:32:29.701Z,99.99
2016-03-22T02:32:43.888Z,99.99
2016-03-22T02:32:58.091Z,99.99
2016-03-22T02:33:12.501Z,99.99
2016-03-22T02:33:26.719Z,99.99
2016-03-22T02:33:40.751Z,99.99
2016-03-22T02:33:54.907Z,99.99
2016-03-22T02:34:08.471Z,99.99
2016-03-22T02:34:22.440Z,99.99
2016-03-22T02:34:36.643Z,99.99
2016-03-22T02:34:50.971Z,99.99
2016-03-22T02:35:05.143Z,99.99
2016-03-22T02:35:19.569Z,99.99
2016-03-22T02:35:33.882Z,99.99
2016-03-22T02:35:48.194Z,99.99
2016-03-22T02:36:02.304Z,99.99
2016-03-22T02:36:16.571Z,99.99
2016-03-22T02:36:30.806Z,99.99
2016-03-22T02:36:44.915Z,99.99
2016-03-22T02:36:59.024Z,99.99
2016-03-22T02:37:13.386Z,99.99
2016-03-22T02:37:26.995Z,99.49
2016-03-22T02:37:40.683Z,99.02
2016-03-22T02:37:54.964Z,99.02
2016-03-22T02:38:09.107Z,99.68
2016-03-22T02:38:23.186Z,99.11
2016-03-22T02:38:37.404Z,99.02
2016-03-22T02:38:51.498Z,96.57
2016-03-22T02:39:05.811Z,95.82
2016-03-22T02:39:19.439Z,95.54
2016-03-22T02:39:35.876Z,93.75
2016-03-22T02:39:49.985Z,93.18
2016-03-22T02:40:03.954Z,92.8
2016-03-22T02:40:17.941Z,92.52
2016-03-22T02:40:32.050Z,91.77
2016-03-22T02:40:46.534Z,92.24
2016-03-22T02:41:00.597Z,92.05
2016-03-22T02:41:14.101Z,93.09
2016-03-22T02:41:28.101Z,93.94
2016-03-22T02:41:42.398Z,95.16
2016-03-22T02:41:56.570Z,95.73
2016-03-22T02:42:10.634Z,96.76
2016-03-22T02:42:24.665Z,97.7
2016-03-22T02:42:38.868Z,98.55
2016-03-22T02:43:06.822Z,99.77
2016-03-22T02:43:21.058Z,99.77
2016-03-22T02:43:35.230Z,99.99
2016-03-22T02:43:49.480Z,99.3
2016-03-22T02:44:03.995Z,99.11
2016-03-22T02:44:18.406Z,99.21
2016-03-22T02:44:32.734Z,98.83
2016-03-22T02:44:47.062Z,97.8
2016-03-22T02:45:01.031Z,97.8
2016-03-22T02:45:15.048Z,96.95
2016-03-22T02:45:29.189Z,96.67
2016-03-22T02:45:43.283Z,96.57
2016-03-22T02:45:57.392Z,97.52
2016-03-22T02:46:11.582Z,97.89
2016-03-22T02:46:25.128Z,98.27
2016-03-22T02:46:39.363Z,98.83
2016-03-22T02:46:53.378Z,99.68
2016-03-22T02:47:07.506Z,99.11
2016-03-22T02:47:21.475Z,99.68
2016-03-22T02:47:35.600Z,99.58
2016-03-22T02:47:49.694Z,99.21
2016-03-22T02:48:03.850Z,98.55
2016-03-22T02:48:18.025Z,98.36
2016-03-22T02:48:31.900Z,97.7
2016-03-22T02:48:46.197Z,97.33
2016-03-22T02:49:00.291Z,96.01
2016-03-22T02:49:14.731Z,95.63
2016-03-22T02:49:28.841Z,95.44
2016-03-22T02:49:43.216Z,95.44
2016-03-22T02:49:57.403Z,93.75
2016-03-22T02:50:12.109Z,92.8
2016-03-22T02:50:26.359Z,91.35
2016-03-22T02:50:40.515Z,90.64
2016-03-22T02:50:53.953Z,89.79
2016-03-22T02:51:08.142Z,88.52
2016-03-22T02:51:21.658Z,87.68
2016-03-22T02:51:35.596Z,87.68
2016-03-22T02:51:49.924Z,87.49
2016-03-22T02:52:04.080Z,87.49
2016-03-22T02:52:18.380Z,87.02
2016-03-22T02:52:32.270Z,86.83
2016-03-22T02:53:00.770Z,86.07
2016-03-22T02:53:14.820Z,85.13
2016-03-22T02:53:28.820Z,84.66
2016-03-22T02:53:43.117Z,83.72
2016-03-22T02:53:57.430Z,82.97
2016-03-22T02:54:11.588Z,82.21
2016-03-22T02:54:25.682Z,81.46
2016-03-22T02:54:40.010Z,80.8
2016-03-22T02:54:54.416Z,81.18
2016-03-22T02:55:08.591Z,81.74
2016-03-22T02:55:22.185Z,82.12
2016-03-22T02:55:36.185Z,82.21
2016-03-22T02:55:50.216Z,83.06
2016-03-22T02:56:04.169Z,83.25
2016-03-22T02:56:18.281Z,83.62
2016-03-22T02:56:46.735Z,84.28
2016-03-22T02:57:00.906Z,84.56
2016-03-22T02:57:14.941Z,83.81
2016-03-22T02:57:29.066Z,84
2016-03-22T02:57:43.191Z,83.25
2016-03-22T02:57:57.378Z,82.5
2016-03-22T02:58:11.427Z,81.37
2016-03-22T02:58:25.505Z,80.99
2016-03-22T02:58:39.521Z,80.99
2016-03-22T02:58:53.568Z,79.95
2016-03-22T02:59:07.899Z,79.39
2016-03-22T02:59:22.196Z,77.97
2016-03-22T02:59:36.399Z,77.6
2016-03-22T02:59:50.368Z,76.75
2016-03-22T03:00:04.336Z,75.9
2016-03-22T03:00:18.541Z,75.81
2016-03-22T03:00:32.698Z,74.77
2016-03-22T03:00:46.995Z,74.3
2016-03-22T03:01:01.510Z,73.83
2016-03-22T03:01:15.591Z,73.08
2016-03-22T03:01:29.794Z,72.7
2016-03-22T03:01:44.169Z,71.48
2016-03-22T03:01:58.248Z,71.1
2016-03-22T03:02:12.297Z,70.72
2016-03-22T03:02:26.329Z,70.91
2016-03-22T03:02:40.672Z,70.82
2016-03-22T03:02:54.782Z,70.82
2016-03-22T03:03:09.284Z,70.91
2016-03-22T03:03:23.346Z,70.16
2016-03-22T03:03:37.424Z,69.78
2016-03-22T03:03:51.784Z,69.31
2016-03-22T03:04:06.003Z,69.31
2016-03-22T03:04:19.084Z,69.31
2016-03-22T03:04:33.146Z,69.12
2016-03-22T03:04:47.287Z,71.1
2016-03-22T03:05:01.287Z,71.76
2016-03-22T03:05:15.821Z,72.8
2016-03-22T03:05:30.087Z,73.74
2016-03-22T03:05:44.087Z,75.24
2016-03-22T03:05:58.352Z,75.24
2016-03-22T03:06:12.027Z,75.71
2016-03-22T03:06:26.012Z,75.99
2016-03-22T03:06:40.215Z,76.37
2016-03-22T03:06:54.402Z,77.12
2016-03-22T03:07:08.482Z,77.03
2016-03-22T03:07:22.920Z,77.03
2016-03-22T03:08:05.154Z,77.03
2016-03-22T03:08:19.407Z,76.75
2016-03-22T03:08:33.610Z,75.9
2016-03-22T03:08:47.688Z,75.99
2016-03-22T03:09:01.876Z,75.81
2016-03-22T03:09:16.566Z,74.68
2016-03-22T03:09:29.723Z,74.3